AirNav   Duncan Aviation - Near you to keep you flying
 
 1483 users online  

MU26 Robinson Airport
Belton, Missouri, USA

GOING TO BELTON?


FAA INFORMATION EFFECTIVE 03 NOVEMBER 2022

Location

FAA Identifier: MU26
Lat/Long: 38-46-15.0500N 094-33-32.3800W
38-46.250833N 094-33.539667W
38.7708472,-94.5589944
(estimated)
Elevation: 1087 ft. / 331 m (estimated)
Variation: 04E (2000)
From city: 3 miles S of BELTON, MO
Time zone: UTC -6 (UTC -5 during Daylight Saving Time)
Zip code: 64012

Airport Operations

Airport use: Private use. Permission required prior to landing
Activation date: 01/2003
Control tower: no
ARTCC: KANSAS CITY CENTER
FSS: COLUMBIA FLIGHT SERVICE STATION
Attendance: UNATNDD
Segmented circle: no

Airport Communications

WX ASOS at OJC (10 nm NW): PHONE 913-780-6969
WX AWOS-3PT at LRY (14 nm SE): 119.975 (816-380-5936)
WX ASOS at LXT (14 nm NE): 124.175 (816-347-9807)
WX ASOS at IXD (16 nm W): 135.325 (913-780-6987)

Nearby radio navigation aids

VOR radial/distance  VOR name  Freq  Var
ANXr219/28.0NAPOLEON VORTAC114.0007E
BUMr347/30.1BUTLER VORTAC115.9007E
MCIr160/32.0KANSAS CITY VORTAC113.2505E

 
NDB name  Hdg/Dist  Freq  Var  ID
HERBB079/8.442004EPK .--. -.-

Airport Services

Runway Information

Runway 8/26

Dimensions: 2260 x 30 ft. / 689 x 9 m
Surface: asphalt, in fair condition
RUNWAY 8  RUNWAY 26
Latitude: 38-46.224833N38-46.276667N
Longitude: 094-33.775333W094-33.304333W
Elevation: 1087.0 ft.1049.0 ft.
Traffic pattern: leftright
Obstructions: 4 ft. fence, 1971 ft. from runway40 ft. pline, 1050 ft. from runway
OWNER DESIRES ARPT BE CHARTED.

Airport Ownership and Management from official FAA records

Ownership: Privately-owned
Owner: R.E. & J.L. ROBINSON
3409 E. 195TH STREET
BELTON, MO 64012
Phone 816-331-6810
Manager: R.E. ROBINSON
3409 E. 195TH STREET
BELTON, MO 64012
Phone 816-331-6810

Airport Operational Statistics

Aircraft based on the field: 1
Multi engine airplanes: 1
    

Additional Remarks

FOR CD CTC KANSAS CITY APCH AT 816-329-2710.

Instrument Procedures

There are no published instrument procedures at MU26.

Some nearby airports with instrument procedures:

KOJC - Johnson County Executive Airport (10 nm NW)
KLRY - Lawrence Smith Memorial Airport (14 nm SE)
KLXT - Lee's Summit Municipal Airport (14 nm NE)
KIXD - New Century AirCenter Airport (16 nm W)
KMKC - Charles B Wheeler Downtown Airport (21 nm N)
 
Loc | Ops | Rwys | IFR | FBO | Links
Com | Nav | Svcs | Stats | Notes
Area around MU26 (Robinson Airport)
 
Road maps at: MapQuest Bing Google
 
Aerial photo
No photo
 
Sectional chart

 
Airport distance calculator
Flying to Robinson Airport? Find the distance to fly.

From to MU26

Sunrise and sunset
Times for 29-Nov-2022
 Local
(UTC-6)
 Zulu
(UTC)
Morning civil twilight06:4712:47
Sunrise07:1713:17
Sunset16:5722:57
Evening civil twilight17:2623:26

Current date and time
Zulu (UTC)  29-Nov-2022 18:10:32
Local (UTC-6)  29-Nov-2022 12:10:32
 
METAR
KGVW 
4nm N 
291750Z AUTO 15014KT 1/2SM FG SCT047 OVC060 22/21 A2984 RMK A01
KOJC 
9nm NW 
291753Z 27016G29KT 10SM SCT035 11/04 A2953 RMK AO2 PK WND 25029/1719 SLP997 T01110044 10144 20089 53027
KLRY 
14nm SE 
291755Z AUTO 28013G21KT 10SM CLR 16/05 A2955 RMK AO2
KLXT 
15nm NE 
291753Z AUTO 23020G32KT 10SM CLR 14/03 A2950 RMK AO2 PK WND 25038/1719 SLP988 T01390033 10156 20094 51015
KIXD 
15nm W 
291753Z 28022G29KT 10SM BKN022 BKN028 10/05 A2955 RMK AO2 PK WND 23029/1656 SLP006 T01000050 10139 20100 51021
TAF
KIXD 
15nm W 
291728Z 2918/3018 29016G26KT P6SM BKN018 FM300100 32013G23KT P6SM SCT070 FM301200 30010KT P6SM SKC
NOTAMs
Click for the latest NOTAMs
NOTAMs are issued by the DoD/FAA and will open in a separate window not controlled by AirNav.

 

 
 

Would you like to see your business listed on this page?

 If your business provides an interesting product or service to pilots, flight crews, aircraft, or users of the Robinson Airport, you should consider listing it here.  To start the listing process, click on the button below
 
Add a business
 

Other Pages about Robinson Airport

Update a link
 
Copyright © AirNav, LLC. All rights reserved. Privacy Policy  Contact